Time;durP1;ratioP1;P1;durP2;ratioP2;P2;SDS_P1;SDS_P2;PMS_P1;PMS_P2;Temp;Humidity;BMP_temperature;BMP_pressure;BME280_temperature;BME280_humidity;BME280_pressure;Samples;Min_cycle;Max_cycle;Signal;HPM_P1;HPM_P2
2022/07/20 00:01:46;;;;;;;59.53;29.48;;;;;;;;;;5032451;28;20453;-70
2022/07/20 00:04:11;;;;;;;61.45;31.35;;;;;;;;;;5032533;28;20096;-70
2022/07/20 00:06:37;;;;;;;59.35;29.88;;;;;;;;;;5032995;28;20029;-70
2022/07/20 00:11:46;;;;;;;50.72;30.35;;;;;;;;;;5032157;28;20049;-70
2022/07/20 00:14:11;;;;;;;55.67;31.58;;;;;;;;;;5032078;28;20021;-70
2022/07/20 00:16:36;;;;;;;64.00;32.90;;;;;;;;;;5032449;28;20030;-70
2022/07/20 00:19:02;;;;;;;65.88;33.65;;;;;;;;;;5032239;28;20029;-70
2022/07/20 00:21:27;;;;;;;61.03;32.28;;;;;;;;;;5032793;28;20037;-70
2022/07/20 00:23:53;;;;;;;66.22;34.38;;;;;;;;;;5033964;28;20033;-70
2022/07/20 00:26:18;;;;;;;77.95;37.97;;;;;;;;;;5036560;28;20063;-70
2022/07/20 00:28:43;;;;;;;74.60;35.35;;;;;;;;;;5035981;28;20099;-70
2022/07/20 00:31:09;;;;;;;73.95;37.40;;;;;;;;;;5035609;28;20037;-70
2022/07/20 00:33:34;;;;;;;78.18;37.35;;;;;;;;;;5035817;28;20029;-70
2022/07/20 00:36:00;;;;;;;68.63;34.85;;;;;;;;;;5029263;28;20026;-70
2022/07/20 00:38:25;;;;;;;76.68;37.08;;;;;;;;;;5036127;28;20033;-70
2022/07/20 00:40:50;;;;;;;22.05;14.88;;;;;;;;;;5035897;28;20037;-70
2022/07/20 00:43:16;;;;;;;365.67;36.17;;;;;;;;;;5036054;28;20068;-70
2022/07/20 00:45:41;;;;;;;77.55;37.55;;;;;;;;;;5035169;28;20037;-70
2022/07/20 00:48:06;;;;;;;33.65;16.52;;;;;;;;;;5035430;28;20029;-70
2022/07/20 00:50:32;;;;;;;36.70;15.88;;;;;;;;;;5035357;28;20014;-70
2022/07/20 00:52:57;;;;;;;29.27;15.88;;;;;;;;;;5035351;28;20025;-70
2022/07/20 00:55:22;;;;;;;27.33;16.52;;;;;;;;;;5035826;28;20034;-70
2022/07/20 00:57:48;;;;;;;33.58;15.45;;;;;;;;;;5035517;28;20037;-70
2022/07/20 01:00:14;;;;;;;30.48;16.50;;;;;;;;;;5035311;28;20099;-70
2022/07/20 01:02:39;;;;;;;32.08;15.02;;;;;;;;;;5035508;28;20017;-70
2022/07/20 01:05:06;;;;;;;32.20;14.50;;;;;;;;;;5035465;28;20033;-70
2022/07/20 01:07:31;;;;;;;28.02;12.30;;;;;;;;;;5035615;28;20034;-70
2022/07/20 01:09:56;;;;;;;27.52;12.65;;;;;;;;;;5035028;28;20030;-71
2022/07/20 01:12:21;;;;;;;24.98;12.55;;;;;;;;;;5035773;28;20030;-70
2022/07/20 01:14:52;;;;;;;36.78;13.82;;;;;;;;;;5034193;28;20029;-70
2022/07/20 01:17:17;;;;;;;20.83;12.63;;;;;;;;;;5035123;28;20032;-70
2022/07/20 01:19:43;;;;;;;36.25;12.38;;;;;;;;;;5035082;28;20057;-70
2022/07/20 01:22:08;;;;;;;24.23;12.20;;;;;;;;;;5033556;28;20030;-70
2022/07/20 01:24:33;;;;;;;22.80;12.65;;;;;;;;;;5035047;28;20029;-70
2022/07/20 01:26:58;;;;;;;25.73;11.40;;;;;;;;;;5035369;28;20021;-70
2022/07/20 01:29:24;;;;;;;20.40;11.50;;;;;;;;;;5034600;28;20412;-70
2022/07/20 01:31:49;;;;;;;23.13;12.38;;;;;;;;;;5034852;28;20381;-70
2022/07/20 01:34:14;;;;;;;25.23;12.60;;;;;;;;;;5034838;28;20113;-70
2022/07/20 01:36:40;;;;;;;22.67;11.52;;;;;;;;;;5035212;28;20045;-70
2022/07/20 01:39:05;;;;;;;27.83;11.52;;;;;;;;;;5034367;28;20381;-71
2022/07/20 01:41:30;;;;;;;25.02;10.80;;;;;;;;;;5035275;28;20045;-70
2022/07/20 01:43:56;;;;;;;24.80;11.45;;;;;;;;;;5034283;28;20040;-70
2022/07/20 01:46:21;;;;;;;32.90;12.13;;;;;;;;;;5035122;28;20026;-70
2022/07/20 01:48:47;;;;;;;29.42;12.27;;;;;;;;;;5034570;28;20024;-70
2022/07/20 01:51:12;;;;;;;24.23;12.48;;;;;;;;;;5034617;28;20033;-70
2022/07/20 01:53:37;;;;;;;20.48;11.18;;;;;;;;;;5034407;28;20079;-70
2022/07/20 01:56:03;;;;;;;23.85;11.80;;;;;;;;;;5034822;28;20025;-71
2022/07/20 01:58:28;;;;;;;19.73;10.18;;;;;;;;;;5034253;28;20025;-70
2022/07/20 02:00:53;;;;;;;25.20;11.25;;;;;;;;;;5034177;28;20017;-70
2022/07/20 02:03:19;;;;;;;16.15;10.10;;;;;;;;;;5033963;28;20128;-71
2022/07/20 02:05:44;;;;;;;20.58;11.35;;;;;;;;;;5034031;28;20112;-70
2022/07/20 02:08:09;;;;;;;23.42;10.30;;;;;;;;;;5038632;28;20053;-70
2022/07/20 02:10:35;;;;;;;28.60;12.52;;;;;;;;;;5034286;28;20369;-70
2022/07/20 02:13:00;;;;;;;28.55;12.48;;;;;;;;;;5034185;28;20053;-70
2022/07/20 02:18:11;;;;;;;23.17;11.55;;;;;;;;;;5034015;28;20524;-70
2022/07/20 02:20:36;;;;;;;22.67;12.13;;;;;;;;;;5034103;28;20030;-70
2022/07/20 02:23:03;;;;;;;23.98;12.57;;;;;;;;;;5032753;28;20021;-70
2022/07/20 02:25:28;;;;;;;24.48;12.95;;;;;;;;;;5033779;28;20540;-70
2022/07/20 02:27:53;;;;;;;19.77;11.55;;;;;;;;;;5033610;28;20029;-70
2022/07/20 02:30:19;;;;;;;25.40;12.07;;;;;;;;;;5033619;28;20025;-70
2022/07/20 02:32:44;;;;;;;23.42;12.82;;;;;;;;;;5033836;28;20041;-70
2022/07/20 02:35:09;;;;;;;24.95;13.45;;;;;;;;;;5034007;28;20527;-70
2022/07/20 02:37:35;;;;;;;23.60;11.93;;;;;;;;;;5033811;28;20018;-70
2022/07/20 02:40:00;;;;;;;18.48;11.50;;;;;;;;;;5033579;28;20052;-70
2022/07/20 02:42:25;;;;;;;19.55;10.85;;;;;;;;;;5033542;28;20057;-70
2022/07/20 02:44:51;;;;;;;20.42;12.13;;;;;;;;;;5033430;28;20108;-70
2022/07/20 02:47:16;;;;;;;19.65;10.85;;;;;;;;;;5033251;28;20468;-70
2022/07/20 02:49:41;;;;;;;26.30;11.68;;;;;;;;;;5033459;28;20044;-70
2022/07/20 02:52:06;;;;;;;24.45;10.68;;;;;;;;;;5021528;28;20040;-70
2022/07/20 02:54:32;;;;;;;18.48;8.63;;;;;;;;;;5033095;28;20024;-70
2022/07/20 02:56:57;;;;;;;14.18;8.38;;;;;;;;;;5033610;28;20088;-70
2022/07/20 02:59:22;;;;;;;18.52;8.35;;;;;;;;;;5033155;28;20021;-71
2022/07/20 03:01:47;;;;;;;22.85;8.18;;;;;;;;;;5033169;28;20032;-70
2022/07/20 03:04:13;;;;;;;15.88;8.02;;;;;;;;;;5033033;28;20112;-70
2022/07/20 03:06:38;;;;;;;18.20;7.93;;;;;;;;;;5033664;28;20431;-70
2022/07/20 03:09:03;;;;;;;21.60;8.15;;;;;;;;;;5032857;28;20108;-70
2022/07/20 03:11:29;;;;;;;14.52;7.55;;;;;;;;;;5033560;28;20041;-70
2022/07/20 03:13:54;;;;;;;16.33;7.43;;;;;;;;;;5032758;28;20021;-71
2022/07/20 03:16:19;;;;;;;21.65;7.65;;;;;;;;;;5032975;28;20424;-70
2022/07/20 03:18:45;;;;;;;14.93;7.97;;;;;;;;;;5032233;28;20065;-70
2022/07/20 03:21:10;;;;;;;13.80;6.25;;;;;;;;;;5033331;28;20025;-70
2022/07/20 03:23:35;;;;;;;14.02;7.15;;;;;;;;;;5033444;28;20021;-70
2022/07/20 03:26:00;;;;;;;9.57;6.18;;;;;;;;;;5033111;28;20043;-70
2022/07/20 03:28:26;;;;;;;12.07;7.60;;;;;;;;;;5032860;28;20450;-70
2022/07/20 03:30:51;;;;;;;16.27;7.68;;;;;;;;;;5032640;28;20029;-70
2022/07/20 03:33:16;;;;;;;17.92;7.38;;;;;;;;;;5033136;28;20453;-70
2022/07/20 03:35:42;;;;;;;9.15;6.40;;;;;;;;;;5032848;28;20465;-70
2022/07/20 03:38:07;;;;;;;12.02;6.85;;;;;;;;;;5033024;28;20092;-70
2022/07/20 03:40:32;;;;;;;14.52;7.03;;;;;;;;;;5032499;28;20041;-70
2022/07/20 03:42:57;;;;;;;12.02;6.63;;;;;;;;;;5032285;28;20028;-70
2022/07/20 03:45:23;;;;;;;16.55;6.45;;;;;;;;;;5032763;28;20072;-70
2022/07/20 03:47:48;;;;;;;21.70;7.80;;;;;;;;;;5033115;28;20092;-70
2022/07/20 03:50:13;;;;;;;16.55;6.93;;;;;;;;;;5032812;28;20101;-70
2022/07/20 03:52:39;;;;;;;19.75;8.30;;;;;;;;;;5033004;28;20468;-70
2022/07/20 03:55:04;;;;;;;13.15;6.82;;;;;;;;;;5032599;28;20030;-70
2022/07/20 03:57:29;;;;;;;12.13;7.05;;;;;;;;;;5033063;28;20122;-70
2022/07/20 03:59:55;;;;;;;16.77;7.18;;;;;;;;;;5035737;28;20023;-70
2022/07/20 04:02:20;;;;;;;11.10;7.18;;;;;;;;;;5036683;28;20029;-70
2022/07/20 04:04:45;;;;;;;13.50;6.22;;;;;;;;;;5036104;28;20424;-70
2022/07/20 04:07:11;;;;;;;7.80;3.97;;;;;;;;;;5036904;28;20021;-70
2022/07/20 04:09:46;;;;;;;9.18;5.20;;;;;;;;;;5036202;28;20389;-71
2022/07/20 04:12:21;;;;;;;11.10;4.95;;;;;;;;;;5036401;28;20499;-70
2022/07/20 04:14:49;;;;;;;18.13;6.70;;;;;;;;;;5035945;28;20033;-70
2022/07/20 04:17:14;;;;;;;5.82;3.72;;;;;;;;;;5036111;28;20026;-70
2022/07/20 04:19:40;;;;;;;3.40;2.33;;;;;;;;;;5036476;28;20033;-70
2022/07/20 04:22:05;;;;;;;3.60;2.05;;;;;;;;;;5036106;28;20030;-70
2022/07/20 04:24:31;;;;;;;9.70;3.38;;;;;;;;;;5035766;28;20095;-70
2022/07/20 04:26:56;;;;;;;5.47;3.33;;;;;;;;;;5036094;28;20029;-70
2022/07/20 04:29:22;;;;;;;6.53;3.63;;;;;;;;;;5036025;28;20037;-70
2022/07/20 04:31:48;;;;;;;11.05;3.05;;;;;;;;;;5035731;28;20028;-70
2022/07/20 04:34:13;;;;;;;516.05;41.65;;;;;;;;;;5035810;28;20033;-70
2022/07/20 04:36:38;;;;;;;15.45;3.33;;;;;;;;;;5036622;28;20021;-71
2022/07/20 04:39:04;;;;;;;6.63;3.08;;;;;;;;;;5035513;28;20029;-71
2022/07/20 04:41:29;;;;;;;950.85;77.50;;;;;;;;;;5036272;28;20046;-70
2022/07/20 04:43:54;;;;;;;9.40;5.05;;;;;;;;;;5035530;28;20116;-70
2022/07/20 04:46:20;;;;;;;631.42;84.30;;;;;;;;;;5036064;28;20354;-70
2022/07/20 04:48:45;;;;;;;5.20;3.33;;;;;;;;;;5035701;28;20443;-70
2022/07/20 04:51:10;;;;;;;148.75;20.73;;;;;;;;;;5035569;28;20075;-70
2022/07/20 04:53:35;;;;;;;186.88;16.27;;;;;;;;;;5035765;28;20060;-70
2022/07/20 04:56:01;;;;;;;10.43;3.58;;;;;;;;;;5035855;28;20035;-70
2022/07/20 04:58:26;;;;;;;978.42;103.68;;;;;;;;;;5035725;28;20029;-70
2022/07/20 05:00:51;;;;;;;961.95;81.78;;;;;;;;;;5027178;28;20097;-70
2022/07/20 05:03:17;;;;;;;39.83;22.90;;;;;;;;;;5035159;28;20448;-70
2022/07/20 05:05:42;;;;;;;1715.40;139.55;;;;;;;;;;5035189;28;20045;-70
2022/07/20 05:08:07;;;;;;;1008.20;84.43;;;;;;;;;;5034098;28;20024;-70
2022/07/20 05:10:32;;;;;;;1999.90;999.90;;;;;;;;;;5035077;28;20061;-70
2022/07/20 05:12:58;;;;;;;1369.35;101.35;;;;;;;;;;5035201;28;20026;-70
2022/07/20 05:15:23;;;;;;;42.53;5.80;;;;;;;;;;5035007;28;20103;-70
2022/07/20 05:17:49;;;;;;;41.22;6.28;;;;;;;;;;5035303;28;20029;-70
2022/07/20 05:20:14;;;;;;;1999.90;999.90;;;;;;;;;;5034617;28;20386;-70
2022/07/20 05:22:40;;;;;;;298.45;113.32;;;;;;;;;;5035349;28;20024;-70
2022/07/20 05:25:05;;;;;;;1586.15;765.17;;;;;;;;;;5034650;28;20041;-70
2022/07/20 05:27:30;;;;;;;1999.90;999.90;;;;;;;;;;5039055;28;20393;-70
2022/07/20 05:29:56;;;;;;;1999.90;999.90;;;;;;;;;;5034310;28;20021;-70
2022/07/20 05:32:21;;;;;;;1999.90;999.90;;;;;;;;;;5034920;28;20095;-70
2022/07/20 05:34:46;;;;;;;1999.90;999.90;;;;;;;;;;5034623;28;20033;-70
2022/07/20 05:37:12;;;;;;;1999.90;999.90;;;;;;;;;;5034810;28;20021;-70
2022/07/20 05:39:37;;;;;;;1999.90;999.90;;;;;;;;;;5034361;28;20060;-70
2022/07/20 05:42:02;;;;;;;1999.90;999.90;;;;;;;;;;5035084;28;20029;-70
2022/07/20 05:44:28;;;;;;;1999.90;999.90;;;;;;;;;;5034138;28;20144;-71
2022/07/20 05:46:53;;;;;;;1999.90;999.90;;;;;;;;;;5034737;28;20124;-71
2022/07/20 05:49:18;;;;;;;1999.90;999.90;;;;;;;;;;5034525;28;20033;-70
2022/07/20 05:51:43;;;;;;;1999.90;999.90;;;;;;;;;;5034741;28;20034;-70
2022/07/20 05:54:09;;;;;;;1999.90;999.90;;;;;;;;;;5034081;28;20393;-71
2022/07/20 05:56:34;;;;;;;1999.90;999.90;;;;;;;;;;5034723;28;20074;-70
2022/07/20 05:58:59;;;;;;;1999.90;999.90;;;;;;;;;;5034007;28;20009;-71
2022/07/20 06:01:25;;;;;;;1999.90;999.90;;;;;;;;;;5034193;28;20038;-70
2022/07/20 06:03:50;;;;;;;1999.90;999.90;;;;;;;;;;5033999;28;20107;-70
2022/07/20 06:06:15;;;;;;;1527.80;755.10;;;;;;;;;;5034295;28;20059;-70
2022/07/20 06:08:41;;;;;;;18.80;13.27;;;;;;;;;;5033937;28;20041;-70
2022/07/20 06:11:08;;;;;;;41.05;37.45;;;;;;;;;;5034513;28;20382;-70
2022/07/20 06:13:33;;;;;;;19.33;12.77;;;;;;;;;;5033579;28;20465;-70
2022/07/20 06:15:59;;;;;;;27.15;13.15;;;;;;;;;;5034036;28;20139;-70
2022/07/20 06:18:24;;;;;;;20.33;14.35;;;;;;;;;;5034186;28;20025;-70
2022/07/20 06:20:49;;;;;;;1999.90;999.90;;;;;;;;;;5033267;28;20021;-70
2022/07/20 06:23:15;;;;;;;1999.90;999.90;;;;;;;;;;5034194;28;20147;-70
2022/07/20 06:25:40;;;;;;;1999.90;999.90;;;;;;;;;;5034010;28;20048;-71
2022/07/20 06:28:07;;;;;;;1999.90;999.90;;;;;;;;;;5032625;28;20504;-70
2022/07/20 06:30:32;;;;;;;1999.90;999.90;;;;;;;;;;5033313;28;20067;-70
2022/07/20 06:32:57;;;;;;;654.92;171.38;;;;;;;;;;5033825;28;20049;-70
2022/07/20 06:35:23;;;;;;;20.17;12.40;;;;;;;;;;5034172;28;20025;-71
2022/07/20 06:37:48;;;;;;;20.98;12.23;;;;;;;;;;5033857;28;20142;-70
2022/07/20 06:40:14;;;;;;;19.27;12.07;;;;;;;;;;5033512;28;20509;-70
2022/07/20 06:42:39;;;;;;;19.00;11.55;;;;;;;;;;5033973;28;20024;-70
2022/07/20 06:45:04;;;;;;;22.52;16.27;;;;;;;;;;5032906;28;20037;-70
2022/07/20 06:47:30;;;;;;;20.90;15.05;;;;;;;;;;5033793;28;20025;-70
2022/07/20 06:49:56;;;;;;;23.83;17.58;;;;;;;;;;5032948;28;20114;-70
2022/07/20 06:52:21;;;;;;;23.33;17.55;;;;;;;;;;5033775;28;20033;-70
2022/07/20 06:54:46;;;;;;;26.95;17.45;;;;;;;;;;5033376;28;20434;-71
2022/07/20 06:57:13;;;;;;;33.40;21.55;;;;;;;;;;5033328;28;20030;-71
2022/07/20 06:59:39;;;;;;;25.33;22.30;;;;;;;;;;5033687;28;20076;-70
2022/07/20 07:02:04;;;;;;;24.88;22.15;;;;;;;;;;5033486;28;20358;-70
2022/07/20 07:04:30;;;;;;;29.02;20.08;;;;;;;;;;5032825;28;20120;-70
2022/07/20 07:06:55;;;;;;;1999.90;999.90;;;;;;;;;;5033073;28;20053;-70
2022/07/20 07:09:20;;;;;;;1999.90;999.90;;;;;;;;;;5033503;28;20469;-70
2022/07/20 07:11:46;;;;;;;1999.90;999.90;;;;;;;;;;5033124;28;20021;-70
2022/07/20 07:14:11;;;;;;;1999.90;999.90;;;;;;;;;;5032515;28;20083;-70
2022/07/20 07:16:36;;;;;;;1999.90;999.90;;;;;;;;;;5033340;28;20465;-71
2022/07/20 07:19:02;;;;;;;1999.90;999.90;;;;;;;;;;5032760;28;20029;-71
2022/07/20 07:21:27;;;;;;;1999.90;999.90;;;;;;;;;;5032671;28;20148;-71
2022/07/20 07:23:52;;;;;;;1999.90;999.90;;;;;;;;;;5032704;28;20473;-70
2022/07/20 07:26:18;;;;;;;48.92;44.38;;;;;;;;;;5032806;28;20018;-70
2022/07/20 07:28:44;;;;;;;37.20;31.63;;;;;;;;;;5033255;28;20029;-70
2022/07/20 07:31:10;;;;;;;29.52;23.80;;;;;;;;;;5032738;28;20036;-70
2022/07/20 07:33:35;;;;;;;26.73;23.92;;;;;;;;;;5033077;28;20076;-70
2022/07/20 07:36:00;;;;;;;30.70;27.30;;;;;;;;;;5033086;28;20389;-70
2022/07/20 07:38:26;;;;;;;33.08;29.70;;;;;;;;;;5033570;28;20028;-70
2022/07/20 07:40:51;;;;;;;35.50;31.67;;;;;;;;;;5032044;28;20389;-70
2022/07/20 07:43:16;;;;;;;34.70;29.52;;;;;;;;;;5033175;28;20051;-71
2022/07/20 07:45:42;;;;;;;36.78;30.27;;;;;;;;;;5033043;28;20096;-71
2022/07/20 07:48:10;;;;;;;32.97;29.95;;;;;;;;;;5032568;28;20021;-70
2022/07/20 07:50:38;;;;;;;33.35;30.10;;;;;;;;;;5032281;28;20048;-70
2022/07/20 07:53:05;;;;;;;18.67;10.60;;;;;;;;;;5032230;28;20057;-70
2022/07/20 07:55:31;;;;;;;19.00;10.30;;;;;;;;;;5032447;28;20432;-70
2022/07/20 07:57:56;;;;;;;141.45;17.38;;;;;;;;;;5032440;28;20473;-70
2022/07/20 08:00:21;;;;;;;393.65;36.95;;;;;;;;;;5030583;28;21616;-71
2022/07/20 08:02:48;;;;;;;787.35;65.38;;;;;;;;;;5013824;28;20022;-71
2022/07/20 08:05:14;;;;;;;374.17;43.58;;;;;;;;;;5026984;28;20041;-70
2022/07/20 08:07:40;;;;;;;1051.50;154.13;;;;;;;;;;5026922;28;20124;-70
2022/07/20 08:10:05;;;;;;;1045.05;114.97;;;;;;;;;;5031895;28;20017;-71
2022/07/20 08:12:30;;;;;;;21.60;19.73;;;;;;;;;;5025891;28;20026;-70
2022/07/20 08:14:56;;;;;;;1999.90;999.90;;;;;;;;;;5029140;28;20060;-70
2022/07/20 08:17:21;;;;;;;499.17;37.95;;;;;;;;;;5029552;28;20021;-71
2022/07/20 08:19:46;;;;;;;1604.93;758.50;;;;;;;;;;5029827;28;20032;-70
2022/07/20 08:22:12;;;;;;;19.17;11.13;;;;;;;;;;5028810;28;20025;-70
2022/07/20 08:24:37;;;;;;;554.03;50.55;;;;;;;;;;5029864;28;20033;-70
2022/07/20 08:27:03;;;;;;;17.42;8.95;;;;;;;;;;5030923;28;20033;-70
2022/07/20 08:29:28;;;;;;;13.98;8.52;;;;;;;;;;5032357;28;20504;-70
2022/07/20 08:31:54;;;;;;;15.02;8.43;;;;;;;;;;5032742;28;20021;-70
2022/07/20 08:34:19;;;;;;;13.65;7.75;;;;;;;;;;5032200;28;20042;-70
2022/07/20 08:36:44;;;;;;;18.30;8.10;;;;;;;;;;5032599;28;20087;-70
2022/07/20 08:39:10;;;;;;;16.52;7.65;;;;;;;;;;5031103;28;20021;-70
2022/07/20 08:41:35;;;;;;;18.42;8.73;;;;;;;;;;5032676;28;20073;-70
2022/07/20 08:44:00;;;;;;;13.63;7.28;;;;;;;;;;5032704;28;20045;-70
2022/07/20 08:46:28;;;;;;;12.88;7.30;;;;;;;;;;5036182;28;20029;-70
2022/07/20 08:48:54;;;;;;;16.10;8.07;;;;;;;;;;5035479;28;20120;-70
2022/07/20 08:51:19;;;;;;;16.25;7.90;;;;;;;;;;5035803;28;20112;-70
2022/07/20 08:53:44;;;;;;;14.68;7.65;;;;;;;;;;5035365;28;20359;-70
2022/07/20 08:56:11;;;;;;;14.13;7.40;;;;;;;;;;5033948;28;20033;-70
2022/07/20 08:58:36;;;;;;;14.45;7.80;;;;;;;;;;5011550;28;20488;-70
2022/07/20 09:01:02;;;;;;;14.43;6.90;;;;;;;;;;5033271;28;20017;-70
2022/07/20 09:03:27;;;;;;;15.82;7.43;;;;;;;;;;5031464;28;20141;-70
2022/07/20 09:06:03;;;;;;;12.77;6.97;;;;;;;;;;5032215;28;20029;-69
2022/07/20 09:08:29;;;;;;;16.92;7.47;;;;;;;;;;5022153;28;20045;-70
2022/07/20 09:10:54;;;;;;;11.68;6.85;;;;;;;;;;5028045;28;20037;-70
2022/07/20 09:13:21;;;;;;;13.27;7.18;;;;;;;;;;5031297;28;20091;-70
2022/07/20 09:15:48;;;;;;;14.10;7.60;;;;;;;;;;5031297;28;20089;-70
2022/07/20 09:18:18;;;;;;;14.40;8.10;;;;;;;;;;5031173;28;20037;-70
2022/07/20 09:20:43;;;;;;;18.70;7.82;;;;;;;;;;5031539;28;20080;-69
2022/07/20 09:23:10;;;;;;;15.95;7.18;;;;;;;;;;5031479;28;20029;-70
2022/07/20 09:25:36;;;;;;;17.05;7.85;;;;;;;;;;5031353;28;20336;-69
2022/07/20 09:28:01;;;;;;;14.75;7.85;;;;;;;;;;5031123;28;20446;-70
2022/07/20 09:30:27;;;;;;;14.35;8.75;;;;;;;;;;5030676;28;20029;-70
2022/07/20 09:32:54;;;;;;;13.85;8.52;;;;;;;;;;5030377;28;20030;-70
2022/07/20 09:35:20;;;;;;;16.00;8.25;;;;;;;;;;5029217;28;20025;-69
2022/07/20 09:37:46;;;;;;;20.08;8.88;;;;;;;;;;5024552;28;20026;-70
2022/07/20 09:40:12;;;;;;;17.50;8.88;;;;;;;;;;5030121;28;20062;-70
2022/07/20 09:42:38;;;;;;;16.83;8.10;;;;;;;;;;5031276;28;20018;-70
2022/07/20 09:45:22;;;;;;;19.17;8.52;;;;;;;;;;5030137;28;20385;-70
2022/07/20 09:48:07;;;;;;;15.25;8.40;;;;;;;;;;5018492;28;20029;-70
2022/07/20 09:50:36;;;;;;;14.95;8.38;;;;;;;;;;5029251;28;20021;-69
2022/07/20 09:53:02;;;;;;;18.65;8.65;;;;;;;;;;5030302;28;20108;-69
2022/07/20 09:55:27;;;;;;;19.38;8.75;;;;;;;;;;5029882;28;20449;-69
2022/07/20 09:57:53;;;;;;;15.45;8.75;;;;;;;;;;5031483;28;20051;-70
2022/07/20 10:00:19;;;;;;;20.05;8.57;;;;;;;;;;5030619;28;20144;-70
2022/07/20 10:02:48;;;;;;;13.93;8.02;;;;;;;;;;5027316;28;20017;-70
2022/07/20 10:05:16;;;;;;;20.58;8.63;;;;;;;;;;5029917;28;20038;-70
2022/07/20 10:07:42;;;;;;;18.52;8.02;;;;;;;;;;5030174;28;20108;-70
2022/07/20 10:10:08;;;;;;;15.63;7.65;;;;;;;;;;5030065;28;20048;-70
2022/07/20 10:12:33;;;;;;;14.77;9.02;;;;;;;;;;5030355;28;20021;-69
2022/07/20 10:15:00;;;;;;;12.95;7.85;;;;;;;;;;5030409;28;20037;-70
2022/07/20 10:17:26;;;;;;;20.42;8.70;;;;;;;;;;5027885;28;20449;-70
2022/07/20 10:19:51;;;;;;;18.85;8.48;;;;;;;;;;5030183;28;20484;-70
2022/07/20 10:22:16;;;;;;;22.13;8.80;;;;;;;;;;5028799;28;20033;-70
2022/07/20 10:24:46;;;;;;;16.10;8.27;;;;;;;;;;5025421;28;20036;-69
2022/07/20 10:27:12;;;;;;;16.60;8.07;;;;;;;;;;5026129;28;20423;-70
2022/07/20 10:29:38;;;;;;;15.38;7.90;;;;;;;;;;5030334;28;20033;-70
2022/07/20 10:32:07;;;;;;;18.05;8.00;;;;;;;;;;5029409;28;20012;-70
2022/07/20 10:34:34;;;;;;;17.23;7.90;;;;;;;;;;5017484;28;20025;-70
2022/07/20 10:37:17;;;;;;;16.42;7.82;;;;;;;;;;5029524;28;20481;-70
2022/07/20 10:39:45;;;;;;;15.27;7.88;;;;;;;;;;5027624;28;20053;-69
2022/07/20 10:42:23;;;;;;;16.02;7.93;;;;;;;;;;5030232;28;20053;-70
2022/07/20 10:44:49;;;;;;;21.02;8.25;;;;;;;;;;5020937;28;20124;-70
2022/07/20 10:47:33;;;;;;;15.80;7.80;;;;;;;;;;5030348;28;20112;-70
2022/07/20 10:50:00;;;;;;;14.77;6.78;;;;;;;;;;5029756;28;20079;-70
2022/07/20 10:52:26;;;;;;;15.27;7.03;;;;;;;;;;5028050;28;20385;-69
2022/07/20 10:54:51;;;;;;;14.60;7.40;;;;;;;;;;5029279;28;20029;-70
2022/07/20 10:57:17;;;;;;;14.73;7.45;;;;;;;;;;5029941;28;20021;-70
2022/07/20 10:59:42;;;;;;;15.00;7.43;;;;;;;;;;5029578;28;20916;-70
2022/07/20 11:02:08;;;;;;;15.55;7.03;;;;;;;;;;5026827;28;20013;-70
2022/07/20 11:04:41;;;;;;;14.90;6.78;;;;;;;;;;5027781;28;20090;-70
2022/07/20 11:07:06;;;;;;;14.27;7.13;;;;;;;;;;5028630;28;20596;-70
2022/07/20 11:09:32;;;;;;;16.10;6.85;;;;;;;;;;5028471;28;20104;-70
2022/07/20 11:11:57;;;;;;;16.08;7.03;;;;;;;;;;5030054;28;20017;-70
2022/07/20 11:14:22;;;;;;;13.32;7.05;;;;;;;;;;5028522;28;20055;-70
2022/07/20 11:16:53;;;;;;;14.38;7.35;;;;;;;;;;5029060;28;20365;-70
2022/07/20 11:19:18;;;;;;;13.23;6.50;;;;;;;;;;5029466;28;20112;-70
2022/07/20 11:21:44;;;;;;;15.00;6.55;;;;;;;;;;5029135;28;20434;-70
2022/07/20 11:24:26;;;;;;;14.85;7.18;;;;;;;;;;5017051;28;20029;-70
2022/07/20 11:26:52;;;;;;;15.55;6.82;;;;;;;;;;5028540;28;20021;-70
2022/07/20 11:29:17;;;;;;;13.57;6.47;;;;;;;;;;5027926;28;20029;-71
2022/07/20 11:31:43;;;;;;;13.82;7.20;;;;;;;;;;5028723;28;20397;-70
2022/07/20 11:34:11;;;;;;;15.63;7.28;;;;;;;;;;5028334;28;20045;-70
2022/07/20 11:36:37;;;;;;;14.50;7.20;;;;;;;;;;5029567;28;20034;-71
2022/07/20 11:39:03;;;;;;;11.75;6.88;;;;;;;;;;5027283;28;20030;-70
2022/07/20 11:41:28;;;;;;;14.50;6.85;;;;;;;;;;5027135;28;20080;-70
2022/07/20 11:43:54;;;;;;;15.60;7.07;;;;;;;;;;5028458;28;20466;-70
2022/07/20 11:46:21;;;;;;;17.83;6.55;;;;;;;;;;5028458;28;20026;-70
2022/07/20 11:48:59;;;;;;;15.07;6.38;;;;;;;;;;5028965;28;20021;-70
2022/07/20 11:51:25;;;;;;;11.85;6.65;;;;;;;;;;5028754;28;20041;-70
2022/07/20 11:53:50;;;;;;;12.70;6.63;;;;;;;;;;5023321;28;20018;-70
2022/07/20 11:56:17;;;;;;;12.27;6.60;;;;;;;;;;5025871;28;20033;-70
2022/07/20 11:58:43;;;;;;;10.23;6.18;;;;;;;;;;5029255;28;20060;-71
2022/07/20 12:01:10;;;;;;;12.20;6.47;;;;;;;;;;5032289;28;20029;-71
2022/07/20 12:03:39;;;;;;;11.68;7.25;;;;;;;;;;5031604;28;20116;-71
2022/07/20 12:06:07;;;;;;;8.38;5.93;;;;;;;;;;5030079;28;20033;-70
2022/07/20 12:08:32;;;;;;;14.07;6.78;;;;;;;;;;5031529;28;20038;-70
2022/07/20 12:10:58;;;;;;;8.68;5.30;;;;;;;;;;5031283;28;20033;-71
2022/07/20 12:13:23;;;;;;;10.63;5.60;;;;;;;;;;5032054;28;20025;-71
2022/07/20 12:15:52;;;;;;;9.35;5.40;;;;;;;;;;5031215;28;20022;-71
2022/07/20 12:18:33;;;;;;;13.10;6.25;;;;;;;;;;5030682;28;20477;-71
2022/07/20 12:20:59;;;;;;;10.27;6.35;;;;;;;;;;5025300;28;20029;-70
2022/07/20 12:23:25;;;;;;;11.93;6.45;;;;;;;;;;5034501;28;20036;-70
2022/07/20 12:25:51;;;;;;;10.93;5.95;;;;;;;;;;5034275;28;20084;-71
2022/07/20 12:28:26;;;;;;;9.70;5.90;;;;;;;;;;5020304;28;20402;-70
2022/07/20 12:30:51;;;;;;;1999.90;999.90;;;;;;;;;;5029414;28;20037;-71
2022/07/20 12:33:17;;;;;;;3.50;3.28;;;;;;;;;;5031962;28;20030;-71
2022/07/20 12:35:44;;;;;;;1999.90;999.90;;;;;;;;;;5031038;28;20035;-70
2022/07/20 12:38:09;;;;;;;3.03;2.83;;;;;;;;;;5031433;28;20128;-70
2022/07/20 12:40:38;;;;;;;4.40;4.10;;;;;;;;;;5031202;28;20537;-71
2022/07/20 12:43:22;;;;;;;4.03;3.72;;;;;;;;;;5031553;28;20026;-70
2022/07/20 12:45:47;;;;;;;3.00;2.80;;;;;;;;;;5045426;28;20072;-70
2022/07/20 12:48:14;;;;;;;2.47;2.28;;;;;;;;;;5030048;28;20433;-70
2022/07/20 12:50:39;;;;;;;2.30;2.10;;;;;;;;;;5031106;28;20026;-70
2022/07/20 12:53:04;;;;;;;1999.90;999.90;;;;;;;;;;5031417;28;20033;-70
2022/07/20 12:55:30;;;;;;;1999.90;999.90;;;;;;;;;;5032259;28;20076;-70
2022/07/20 12:57:55;;;;;;;1999.90;999.90;;;;;;;;;;5030796;28;20111;-70
2022/07/20 13:00:20;;;;;;;1999.90;999.90;;;;;;;;;;5031828;28;20034;-70
2022/07/20 13:02:45;;;;;;;1999.90;999.90;;;;;;;;;;5031210;28;20025;-70
2022/07/20 13:05:11;;;;;;;1999.90;999.90;;;;;;;;;;5030881;28;20382;-70
2022/07/20 13:07:36;;;;;;;1999.90;999.90;;;;;;;;;;5032212;28;20029;-70
2022/07/20 13:10:02;;;;;;;1999.90;999.90;;;;;;;;;;5030669;28;20973;-70
2022/07/20 13:12:27;;;;;;;1999.90;999.90;;;;;;;;;;5031289;28;20029;-70
2022/07/20 13:14:52;;;;;;;1999.90;999.90;;;;;;;;;;5031168;28;20424;-70
2022/07/20 13:17:18;;;;;;;1999.90;999.90;;;;;;;;;;5031153;28;20473;-70
2022/07/20 13:19:43;;;;;;;1999.90;999.90;;;;;;;;;;5031669;28;20112;-70
2022/07/20 13:22:08;;;;;;;1999.90;999.90;;;;;;;;;;5030605;28;20041;-70
2022/07/20 13:24:34;;;;;;;1999.90;999.90;;;;;;;;;;5031218;28;20038;-71
2022/07/20 13:26:59;;;;;;;1999.90;999.90;;;;;;;;;;5030943;28;20550;-70
2022/07/20 13:29:24;;;;;;;1999.90;999.90;;;;;;;;;;5030635;28;20846;-70
2022/07/20 13:31:49;;;;;;;1999.90;999.90;;;;;;;;;;5031474;28;20029;-70
2022/07/20 13:34:15;;;;;;;1999.90;999.90;;;;;;;;;;5030848;28;20405;-70
2022/07/20 13:36:40;;;;;;;1999.90;999.90;;;;;;;;;;5030948;28;20067;-70
2022/07/20 13:39:05;;;;;;;1999.90;999.90;;;;;;;;;;5031249;28;20033;-70
2022/07/20 13:41:31;;;;;;;1999.90;999.90;;;;;;;;;;5030124;28;20409;-70
2022/07/20 13:43:56;;;;;;;1999.90;999.90;;;;;;;;;;5031635;28;20056;-70
2022/07/20 13:46:21;;;;;;;1999.90;999.90;;;;;;;;;;5030229;28;20366;-70
2022/07/20 13:48:47;;;;;;;1999.90;999.90;;;;;;;;;;5031109;28;20025;-71
2022/07/20 13:51:12;;;;;;;1999.90;999.90;;;;;;;;;;5030502;28;20025;-70
2022/07/20 13:53:38;;;;;;;1999.90;999.90;;;;;;;;;;5030766;28;20034;-70
2022/07/20 13:56:07;;;;;;;1999.90;999.90;;;;;;;;;;5030569;28;20407;-70
2022/07/20 13:58:36;;;;;;;1999.90;999.90;;;;;;;;;;5026112;28;20111;-71
2022/07/20 14:01:02;;;;;;;1999.90;999.90;;;;;;;;;;5031099;28;20388;-70
2022/07/20 14:03:28;;;;;;;1999.90;999.90;;;;;;;;;;5030286;28;20030;-70
2022/07/20 14:05:53;;;;;;;1999.90;999.90;;;;;;;;;;5030325;28;20472;-70
2022/07/20 14:08:18;;;;;;;1999.90;999.90;;;;;;;;;;5030749;28;20511;-70
2022/07/20 14:10:43;;;;;;;1999.90;999.90;;;;;;;;;;5030057;28;20374;-70
2022/07/20 14:13:11;;;;;;;1999.90;999.90;;;;;;;;;;5027713;28;20119;-70